Time;durP1;ratioP1;P1;durP2;ratioP2;P2;SDS_P1;SDS_P2;PMS_P1;PMS_P2;Temp;Humidity;BMP_temperature;BMP_pressure;BME280_temperature;BME280_humidity;BME280_pressure;Samples;Min_cycle;Max_cycle;Signal;HPM_P1;HPM_P2
2023/03/15 00:02:05;;;;;;;2.38;1.55;;;4.20;99.90;;;;;;4996083;28;20046;-71
2023/03/15 00:04:31;;;;;;;8.50;1.48;;;4.10;99.90;;;;;;4996331;28;20033;-72
2023/03/15 00:06:58;;;;;;;0.47;0.47;;;4.10;99.90;;;;;;4996545;28;20034;-73
2023/03/15 00:09:24;;;;;;;5.50;2.47;;;4.10;99.90;;;;;;4996168;28;20022;-73
2023/03/15 00:11:53;;;;;;;1.42;1.33;;;4.10;99.90;;;;;;4996502;28;20034;-73
2023/03/15 00:14:19;;;;;;;7.22;1.83;;;4.10;99.90;;;;;;4995968;28;20080;-72
2023/03/15 00:16:46;;;;;;;0.60;0.60;;;4.00;99.90;;;;;;4995911;28;20030;-72
2023/03/15 00:19:12;;;;;;;13.98;1.50;;;4.10;99.90;;;;;;4996080;28;20046;-73
2023/03/15 00:21:42;;;;;;;0.60;0.10;;;4.00;99.90;;;;;;4996258;28;20046;-72
2023/03/15 00:24:10;;;;;;;1.77;1.35;;;4.00;99.90;;;;;;4996023;28;20041;-73
2023/03/15 00:26:35;;;;;;;8.63;2.20;;;4.00;99.90;;;;;;4996138;28;20022;-72
2023/03/15 00:29:01;;;;;;;1.40;1.20;;;3.90;99.90;;;;;;4994596;28;20030;-71
2023/03/15 00:31:27;;;;;;;2.15;1.33;;;3.80;99.90;;;;;;4994228;28;20040;-72
2023/03/15 00:33:53;;;;;;;1.35;0.90;;;3.90;99.90;;;;;;4995961;28;20030;-73
2023/03/15 00:36:22;;;;;;;20.63;1.60;;;4.00;99.90;;;;;;4995660;28;20074;-73
2023/03/15 00:38:52;;;;;;;1.52;1.08;;;4.20;99.90;;;;;;4994765;28;20025;-72
2023/03/15 00:41:19;;;;;;;3.30;1.75;;;4.20;99.90;;;;;;4994253;28;20057;-73
2023/03/15 00:43:46;;;;;;;9.77;1.00;;;4.10;99.90;;;;;;4995884;28;20035;-73
2023/03/15 00:46:13;;;;;;;10.73;2.95;;;3.90;99.90;;;;;;4995312;28;20046;-72
2023/03/15 00:48:39;;;;;;;0.88;0.88;;;3.80;99.90;;;;;;4994094;28;20035;-73
2023/03/15 00:51:06;;;;;;;0.30;0.30;;;3.80;99.90;;;;;;4995922;28;20049;-70
2023/03/15 00:53:33;;;;;;;1.52;1.35;;;3.90;99.90;;;;;;4994255;28;20033;-70
2023/03/15 00:56:03;;;;;;;0.73;0.47;;;3.80;99.90;;;;;;4978111;28;20106;-70
2023/03/15 00:58:29;;;;;;;0.73;0.73;;;3.80;99.90;;;;;;4995436;28;20066;-70
2023/03/15 01:00:55;;;;;;;1.80;1.42;;;3.80;99.90;;;;;;4995255;28;20110;-70
2023/03/15 01:03:21;;;;;;;2.83;0.98;;;3.70;99.90;;;;;;4994064;28;20042;-70
2023/03/15 01:05:46;;;;;;;1.42;0.35;;;3.80;99.90;;;;;;4993990;28;20041;-70
2023/03/15 01:08:12;;;;;;;0.30;0.30;;;3.90;99.90;;;;;;4995521;28;20451;-70
2023/03/15 01:10:38;;;;;;;0.38;0.38;;;3.90;99.90;;;;;;4993816;28;20038;-70
2023/03/15 01:13:04;;;;;;;0.32;0.32;;;3.70;99.90;;;;;;4995400;28;20106;-70
2023/03/15 01:15:30;;;;;;;1.60;1.35;;;3.70;99.90;;;;;;4993516;28;20068;-70
2023/03/15 01:17:57;;;;;;;1.55;0.95;;;3.60;99.90;;;;;;4994134;28;20022;-70
2023/03/15 01:20:23;;;;;;;3.72;0.40;;;3.60;99.90;;;;;;4993796;28;20042;-70
2023/03/15 01:22:49;;;;;;;7.43;2.03;;;3.80;99.90;;;;;;4994987;28;20041;-70
2023/03/15 01:25:15;;;;;;;0.00;0.00;;;3.80;99.90;;;;;;4994877;28;20120;-71
2023/03/15 01:27:41;;;;;;;0.65;0.65;;;3.80;99.90;;;;;;4994693;28;20026;-72
2023/03/15 01:30:07;;;;;;;1.65;1.10;;;4.00;99.90;;;;;;4993569;28;20026;-72
2023/03/15 01:32:33;;;;;;;10.02;1.77;;;3.90;99.90;;;;;;4984733;28;20418;-72
2023/03/15 01:34:59;;;;;;;0.30;0.30;;;3.80;99.90;;;;;;4994739;28;20028;-72
2023/03/15 01:37:25;;;;;;;0.05;0.05;;;3.80;99.90;;;;;;4994353;28;20050;-72
2023/03/15 01:39:51;;;;;;;1.05;0.95;;;4.10;99.90;;;;;;4993341;28;20391;-73
2023/03/15 01:42:17;;;;;;;1.25;0.77;;;4.30;99.90;;;;;;4993229;28;20040;-72
2023/03/15 01:44:48;;;;;;;0.20;0.20;;;4.20;99.90;;;;;;4993130;28;20056;-73
2023/03/15 01:47:14;;;;;;;1.08;0.98;;;4.10;99.90;;;;;;4994391;28;20034;-72
2023/03/15 01:49:40;;;;;;;0.40;0.40;;;4.00;99.90;;;;;;4993178;28;20470;-72
2023/03/15 01:52:07;;;;;;;0.47;0.45;;;3.90;99.90;;;;;;4993242;28;20482;-73
2023/03/15 01:54:48;;;;;;;8.75;2.50;;;4.10;99.90;;;;;;4965844;28;20022;-72
2023/03/15 01:57:29;;;;;;;1.08;1.05;;;4.00;99.90;;;;;;4992936;28;20129;-73
2023/03/15 02:00:10;;;;;;;0.10;0.10;;;4.00;99.90;;;;;;4993236;28;20022;-72
2023/03/15 02:02:49;;;;;;;1.77;1.58;;;4.10;99.90;;;;;;4993887;28;20398;-72
2023/03/15 02:05:25;;;;;;;;;;;4.00;99.90;;;;;;4993310;28;20034;-72
2023/03/15 02:07:53;;;;;;;2.97;1.40;;;4.20;99.90;;;;;;4992728;28;19936;-73
2023/03/15 02:10:32;;;;;;;0.20;0.20;;;4.40;99.90;;;;;;4993035;28;20023;-72
2023/03/15 02:13:02;;;;;;;0.00;0.00;;;4.50;99.90;;;;;;4992486;28;20092;-73
2023/03/15 02:15:28;;;;;;;0.35;0.35;;;4.90;99.90;;;;;;4992274;28;20030;-73
2023/03/15 02:17:54;;;;;;;0.00;0.00;;;4.80;99.90;;;;;;4992600;28;20498;-72
2023/03/15 02:20:29;;;;;;;0.08;0.08;;;4.80;99.90;;;;;;4992909;28;20114;-72
2023/03/15 02:23:00;;;;;;;0.00;0.00;;;5.00;99.90;;;;;;4992667;28;20034;-72
2023/03/15 02:25:37;;;;;;;0.28;0.28;;;5.30;99.90;;;;;;4976201;28;20033;-72
2023/03/15 02:28:06;;;;;;;0.25;0.25;;;5.30;99.90;;;;;;4987513;28;20084;-73
2023/03/15 02:30:34;;;;;;;0.20;0.20;;;5.10;99.90;;;;;;4992689;28;20037;-72
2023/03/15 02:33:05;;;;;;;0.20;0.20;;;5.00;99.90;;;;;;4992691;28;20027;-71
2023/03/15 02:35:31;;;;;;;1.85;1.08;;;4.70;99.90;;;;;;4992188;28;20378;-73
2023/03/15 02:37:58;;;;;;;1.13;1.02;;;4.50;99.90;;;;;;4993632;28;20494;-73
2023/03/15 02:40:26;;;;;;;0.15;0.15;;;4.40;99.90;;;;;;4991519;28;20110;-72
2023/03/15 02:43:07;;;;;;;3.50;2.90;;;4.30;99.90;;;;;;4992328;28;20061;-72
2023/03/15 02:45:35;;;;;;;0.85;0.85;;;4.20;99.90;;;;;;4992179;28;20394;-72
2023/03/15 02:48:04;;;;;;;0.10;0.10;;;4.50;99.90;;;;;;4992188;28;20093;-72
2023/03/15 02:50:30;;;;;;;0.55;0.55;;;4.40;99.90;;;;;;4992171;28;20026;-71
2023/03/15 02:52:55;;;;;;;0.38;0.38;;;4.50;99.90;;;;;;4992099;28;20088;-73
2023/03/15 02:55:21;;;;;;;0.63;0.63;;;4.60;99.90;;;;;;4991824;28;20030;-73
2023/03/15 02:57:47;;;;;;;1.35;0.80;;;4.90;99.90;;;;;;4993235;28;20030;-73
2023/03/15 03:00:14;;;;;;;1.30;1.17;;;4.40;99.90;;;;;;4992058;28;20057;-72
2023/03/15 03:02:44;;;;;;;1.90;1.67;;;4.40;99.90;;;;;;4991758;28;20031;-73
2023/03/15 03:05:12;;;;;;;4.38;2.50;;;4.10;99.90;;;;;;4992044;28;20443;-72
2023/03/15 03:07:38;;;;;;;1.75;1.45;;;4.00;99.90;;;;;;4991785;28;20467;-72
2023/03/15 03:10:06;;;;;;;4.60;1.10;;;3.90;99.90;;;;;;4991720;28;20022;-73
2023/03/15 03:12:42;;;;;;;0.20;0.20;;;4.10;99.90;;;;;;4991638;28;20030;-71
2023/03/15 03:15:09;;;;;;;0.28;0.28;;;4.20;99.90;;;;;;4991878;28;20038;-72
2023/03/15 03:17:36;;;;;;;2.65;1.98;;;4.30;99.90;;;;;;4991964;28;20026;-72
2023/03/15 03:20:08;;;;;;;1.85;0.75;;;4.20;99.90;;;;;;4987300;28;20537;-73
2023/03/15 03:22:37;;;;;;;0.20;0.20;;;4.10;99.90;;;;;;4991660;28;20030;-72
2023/03/15 03:25:05;;;;;;;1.15;1.15;;;4.10;99.90;;;;;;4991575;28;20026;-72
2023/03/15 03:27:35;;;;;;;0.10;0.10;;;4.10;99.90;;;;;;4995110;28;20499;-71
2023/03/15 03:30:03;;;;;;;8.77;1.65;;;4.20;99.90;;;;;;4995687;28;20023;-70
2023/03/15 03:32:29;;;;;;;0.40;0.40;;;4.30;99.90;;;;;;4997229;28;20058;-70
2023/03/15 03:34:55;;;;;;;0.47;0.47;;;4.20;99.90;;;;;;4995553;28;20022;-70
2023/03/15 03:37:22;;;;;;;0.13;0.13;;;4.20;99.90;;;;;;4995698;28;20474;-70
2023/03/15 03:39:57;;;;;;;1.25;1.08;;;4.40;99.90;;;;;;4995146;28;20042;-70
2023/03/15 03:42:23;;;;;;;0.52;0.52;;;4.20;99.90;;;;;;4995694;28;20142;-70
2023/03/15 03:44:49;;;;;;;0.85;0.85;;;4.20;99.90;;;;;;4995559;28;20031;-70
2023/03/15 03:47:15;;;;;;;0.70;0.70;;;4.20;99.90;;;;;;4995227;28;20458;-70
2023/03/15 03:49:41;;;;;;;6.70;0.98;;;4.30;99.90;;;;;;4995342;28;20030;-70
2023/03/15 03:52:07;;;;;;;1.05;0.95;;;4.20;99.90;;;;;;4979246;28;20031;-71
2023/03/15 03:54:33;;;;;;;0.00;0.00;;;4.10;99.90;;;;;;4995133;28;20053;-70
2023/03/15 03:56:59;;;;;;;0.10;0.10;;;4.10;99.90;;;;;;4996772;28;20064;-70
2023/03/15 03:59:30;;;;;;;0.10;0.10;;;4.10;99.90;;;;;;4995271;28;20129;-71
2023/03/15 04:02:02;;;;;;;0.73;0.73;;;4.20;99.90;;;;;;4995394;28;20041;-70
2023/03/15 04:04:28;;;;;;;0.00;0.00;;;4.10;99.90;;;;;;4995154;28;20025;-70
2023/03/15 04:06:54;;;;;;;0.00;0.00;;;4.10;99.90;;;;;;4996599;28;20030;-70
2023/03/15 04:09:24;;;;;;;0.20;0.20;;;4.10;99.90;;;;;;4996137;28;20057;-70
2023/03/15 04:11:51;;;;;;;0.10;0.10;;;4.10;99.90;;;;;;4995280;28;20049;-72
2023/03/15 04:14:18;;;;;;;2.45;1.50;;;4.10;99.90;;;;;;4994848;28;20355;-72
2023/03/15 04:16:46;;;;;;;0.30;0.30;;;4.00;99.90;;;;;;4996232;28;20467;-71
2023/03/15 04:19:15;;;;;;;0.10;0.10;;;4.00;99.90;;;;;;4996216;28;20076;-72
2023/03/15 04:21:46;;;;;;;0.00;0.00;;;4.10;99.90;;;;;;4995096;28;20121;-71
2023/03/15 04:24:23;;;;;;;;;;;4.20;99.90;;;;;;4995001;28;20054;-73
2023/03/15 04:27:17;;;;;;;0.00;0.00;;;4.30;99.90;;;;;;5004606;28;19957;-73
2023/03/15 04:30:04;;;;;;;0.90;0.88;;;4.30;99.90;;;;;;4996165;28;20520;-72
2023/03/15 04:32:42;;;;;;;0.47;0.47;;;4.00;99.90;;;;;;4994820;28;20030;-72
2023/03/15 04:35:46;;;;;;;0.00;0.00;;;4.00;99.90;;;;;;4971177;28;20120;-72
2023/03/15 04:38:25;;;;;;;6.57;1.60;;;4.20;99.90;;;;;;4994102;28;20031;-72
2023/03/15 04:41:09;;;;;;;1.83;0.65;;;4.30;99.90;;;;;;4994486;28;20106;-73
2023/03/15 04:43:55;;;;;;;0.10;0.10;;;4.40;99.90;;;;;;4994380;28;20137;-72
2023/03/15 04:46:50;;;;;;;0.10;0.10;;;4.50;99.90;;;;;;4986504;28;20490;-73
2023/03/15 04:49:27;;;;;;;0.22;0.22;;;4.50;99.90;;;;;;4994447;28;20053;-73
2023/03/15 04:52:13;;;;;;;0.25;0.25;;;4.50;99.90;;;;;;4974494;28;20035;-72
2023/03/15 04:55:02;;;;;;;0.20;0.20;;;4.20;99.90;;;;;;4976357;28;20050;-73
2023/03/15 04:57:46;;;;;;;0.43;0.43;;;4.20;99.90;;;;;;4994185;28;20117;-72
2023/03/15 05:00:31;;;;;;;1.23;1.17;;;4.20;99.90;;;;;;4995543;28;20125;-72
2023/03/15 05:03:17;;;;;;;1.88;0.63;;;4.00;99.90;;;;;;4987963;28;20050;-72
2023/03/15 05:06:06;;;;;;;0.20;0.20;;;3.80;99.90;;;;;;4975813;28;20066;-72
2023/03/15 05:08:51;;;;;;;0.45;0.45;;;3.90;99.90;;;;;;4995426;28;20049;-73
2023/03/15 05:11:17;;;;;;;8.48;2.38;;;3.70;99.90;;;;;;4995390;28;20499;-73
2023/03/15 05:13:50;;;;;;;0.65;0.65;;;3.60;99.90;;;;;;4995250;28;20390;-72
2023/03/15 05:16:34;;;;;;;1.58;1.25;;;3.50;99.90;;;;;;4994164;28;20181;-73
2023/03/15 05:19:11;;;;;;;1.65;1.55;;;3.40;99.90;;;;;;4993990;28;20150;-72
2023/03/15 05:22:03;;;;;;;1.58;1.48;;;3.30;99.90;;;;;;4983326;28;20034;-72
2023/03/15 05:24:40;;;;;;;2.17;1.10;;;3.20;99.90;;;;;;4993630;28;20061;-73
2023/03/15 05:27:33;;;;;;;2.88;0.77;;;3.20;99.90;;;;;;4994774;28;20039;-72
2023/03/15 05:30:23;;;;;;;13.27;4.38;;;3.20;99.90;;;;;;4971988;28;20457;-72
2023/03/15 05:33:19;;;;;;;1.83;1.67;;;3.10;99.90;;;;;;4993492;28;20097;-73
2023/03/15 05:36:08;;;;;;;6.03;1.95;;;3.00;99.90;;;;;;4988795;28;20478;-72
2023/03/15 05:38:40;;;;;;;3.10;1.88;;;3.00;99.90;;;;;;4966866;28;20081;-73
2023/03/15 05:41:29;;;;;;;1.10;1.00;;;3.00;99.90;;;;;;4993223;28;20478;-72
2023/03/15 05:44:18;;;;;;;3.80;2.50;;;3.10;99.90;;;;;;4989030;28;20038;-72
2023/03/15 05:47:02;;;;;;;0.73;0.73;;;3.20;99.90;;;;;;4994476;28;20034;-73
2023/03/15 05:49:44;;;;;;;0.30;0.30;;;3.20;99.90;;;;;;4992662;28;20130;-72
2023/03/15 05:52:33;;;;;;;0.93;0.93;;;3.20;99.90;;;;;;4992975;28;20022;-72
2023/03/15 05:55:18;;;;;;;3.15;1.35;;;3.10;99.90;;;;;;4994003;28;20390;-72
2023/03/15 05:58:04;;;;;;;2.13;1.92;;;3.10;99.90;;;;;;4987063;28;20037;-73
2023/03/15 06:01:03;;;;;;;0.08;0.08;;;3.10;99.90;;;;;;4983586;28;20035;-71
2023/03/15 06:03:54;;;;;;;0.57;0.57;;;3.10;99.90;;;;;;4992900;28;20038;-70
2023/03/15 06:06:24;;;;;;;0.60;0.60;;;3.10;99.90;;;;;;4967269;28;20018;-70
2023/03/15 06:08:50;;;;;;;1.48;1.33;;;3.30;99.90;;;;;;4992883;28;20509;-70
2023/03/15 06:11:16;;;;;;;0.60;0.60;;;3.50;99.90;;;;;;4992922;28;20034;-70
2023/03/15 06:13:41;;;;;;;2.15;0.73;;;3.40;99.90;;;;;;4992868;28;20023;-70
2023/03/15 06:16:15;;;;;;;0.95;0.95;;;3.30;99.90;;;;;;4992863;28;20026;-70
2023/03/15 06:18:44;;;;;;;7.47;3.28;;;3.20;99.90;;;;;;4992534;28;20510;-70
2023/03/15 06:21:09;;;;;;;0.20;0.20;;;3.00;99.90;;;;;;4992688;28;20030;-70
2023/03/15 06:23:36;;;;;;;0.10;0.10;;;3.00;99.90;;;;;;4992597;28;20129;-70
2023/03/15 06:26:03;;;;;;;0.00;0.00;;;3.10;99.90;;;;;;4992759;28;20035;-71
2023/03/15 06:28:30;;;;;;;4.53;0.68;;;3.40;99.90;;;;;;4993927;28;20069;-70
2023/03/15 06:31:10;;;;;;;0.32;0.22;;;3.30;99.90;;;;;;4992753;28;20026;-71
2023/03/15 06:33:43;;;;;;;0.00;0.00;;;3.20;99.90;;;;;;4977142;28;20540;-73
2023/03/15 06:36:10;;;;;;;5.82;1.23;;;3.30;99.90;;;;;;4973121;28;20093;-73
2023/03/15 06:38:38;;;;;;;0.20;0.20;;;3.40;99.90;;;;;;4973175;28;20060;-73
2023/03/15 06:41:04;;;;;;;1.02;0.85;;;3.40;99.90;;;;;;4984651;28;20021;-73
2023/03/15 06:43:33;;;;;;;0.45;0.45;;;3.40;99.90;;;;;;4992157;28;20041;-72
2023/03/15 06:46:00;;;;;;;1.67;0.70;;;3.40;99.90;;;;;;4951778;28;20038;-73
2023/03/15 06:48:26;;;;;;;0.00;0.00;;;3.50;99.90;;;;;;4970875;28;20482;-73
2023/03/15 06:50:53;;;;;;;1.00;0.95;;;3.50;99.90;;;;;;4972001;28;20026;-73
2023/03/15 06:53:18;;;;;;;0.00;0.00;;;3.50;99.90;;;;;;4971946;28;20023;-72
2023/03/15 06:55:45;;;;;;;0.10;0.10;;;3.40;99.90;;;;;;4971678;28;20026;-73
2023/03/15 06:58:11;;;;;;;0.55;0.55;;;3.80;99.90;;;;;;4973538;28;20394;-73
2023/03/15 07:00:37;;;;;;;8.52;1.10;;;3.70;99.90;;;;;;4972301;28;20034;-72
2023/03/15 07:03:03;;;;;;;0.40;0.40;;;3.70;99.90;;;;;;4972395;28;20045;-71
2023/03/15 07:05:29;;;;;;;0.15;0.15;;;3.50;99.90;;;;;;4973423;28;20018;-73
2023/03/15 07:07:55;;;;;;;3.22;2.85;;;3.60;99.90;;;;;;4972846;28;20431;-72
2023/03/15 07:10:21;;;;;;;0.32;0.32;;;3.40;99.90;;;;;;4973203;28;20039;-73
2023/03/15 07:12:46;;;;;;;0.25;0.25;;;3.40;99.90;;;;;;4966325;28;20118;-72
2023/03/15 07:15:12;;;;;;;0.10;0.10;;;3.40;99.90;;;;;;4972774;28;20027;-73
2023/03/15 07:17:39;;;;;;;3.88;2.22;;;3.40;99.90;;;;;;4972872;28;20042;-72
2023/03/15 07:20:05;;;;;;;16.33;0.68;;;3.40;99.90;;;;;;4973018;28;20022;-73
2023/03/15 07:22:32;;;;;;;3.08;1.48;;;3.30;99.90;;;;;;4972402;28;20078;-72
2023/03/15 07:24:58;;;;;;;0.10;0.10;;;3.50;99.90;;;;;;4971422;28;20045;-72
2023/03/15 07:27:23;;;;;;;0.00;0.00;;;3.60;99.90;;;;;;4971458;28;20034;-73
2023/03/15 07:29:49;;;;;;;0.10;0.10;;;3.80;99.90;;;;;;4954939;28;20467;-74
2023/03/15 07:32:15;;;;;;;0.00;0.00;;;4.00;99.90;;;;;;4971309;28;20110;-72
2023/03/15 07:34:41;;;;;;;1.95;1.55;;;4.30;99.90;;;;;;4972528;28;20027;-72
2023/03/15 07:37:07;;;;;;;0.10;0.10;;;4.20;99.90;;;;;;4972070;28;20046;-73
2023/03/15 07:39:33;;;;;;;0.03;0.03;;;4.40;99.90;;;;;;4970673;28;20035;-73
2023/03/15 07:41:59;;;;;;;0.13;0.13;;;4.50;99.90;;;;;;4985570;28;20031;-72
2023/03/15 07:44:30;;;;;;;1.08;1.08;;;4.80;99.90;;;;;;4969415;28;20085;-72
2023/03/15 07:46:56;;;;;;;1.38;1.05;;;4.80;99.90;;;;;;4972209;28;20121;-72
2023/03/15 07:49:22;;;;;;;0.25;0.25;;;5.00;99.90;;;;;;4971361;28;20121;-73
2023/03/15 07:51:48;;;;;;;1.30;1.20;;;5.20;99.90;;;;;;4972640;28;20027;-72
2023/03/15 07:54:13;;;;;;;0.55;0.55;;;5.00;99.90;;;;;;4971166;28;20034;-72
2023/03/15 07:56:39;;;;;;;5.03;1.60;;;5.00;99.90;;;;;;4969372;28;20070;-72
2023/03/15 07:59:05;;;;;;;0.35;0.28;;;5.10;99.90;;;;;;4965946;28;20023;-73
2023/03/15 08:01:30;;;;;;;2.05;1.55;;;5.40;99.90;;;;;;4964488;28;20474;-72
2023/03/15 08:03:56;;;;;;;0.30;0.30;;;5.40;99.90;;;;;;4972279;28;20038;-72
2023/03/15 08:06:23;;;;;;;2.20;1.55;;;5.40;99.90;;;;;;4972617;28;20035;-72
2023/03/15 08:08:48;;;;;;;2.10;1.10;;;5.30;99.90;;;;;;4972591;28;20109;-73
2023/03/15 08:11:14;;;;;;;2.33;0.95;;;5.30;99.90;;;;;;4972418;28;20039;-73
2023/03/15 08:13:40;;;;;;;0.45;0.45;;;5.50;99.90;;;;;;4975447;28;20027;-71
2023/03/15 08:16:06;;;;;;;0.10;0.10;;;5.60;99.90;;;;;;4975069;28;20121;-73
2023/03/15 08:18:32;;;;;;;0.00;0.00;;;5.70;99.90;;;;;;4976090;28;20050;-73
2023/03/15 08:20:58;;;;;;;1.52;0.85;;;6.10;99.90;;;;;;4975772;28;20844;-73
2023/03/15 08:23:23;;;;;;;1.08;0.25;;;6.20;99.90;;;;;;4976078;28;20038;-73
2023/03/15 08:25:49;;;;;;;0.10;0.10;;;6.00;99.90;;;;;;4975772;28;20478;-72
2023/03/15 08:28:15;;;;;;;1.75;0.82;;;5.70;99.90;;;;;;4975743;28;20430;-73
2023/03/15 08:30:40;;;;;;;1.75;1.05;;;5.60;99.90;;;;;;4975390;28;20034;-74
2023/03/15 08:33:07;;;;;;;0.43;0.43;;;5.50;99.90;;;;;;4975439;28;20031;-73
2023/03/15 08:35:33;;;;;;;0.05;0.05;;;5.40;99.90;;;;;;4974146;28;20027;-74
2023/03/15 08:38:01;;;;;;;0.00;0.00;;;5.40;99.90;;;;;;4975809;28;20027;-75
2023/03/15 08:40:28;;;;;;;0.00;0.00;;;5.40;99.90;;;;;;4976922;28;20027;-72
2023/03/15 08:42:55;;;;;;;0.63;0.63;;;5.60;99.90;;;;;;4972825;28;20033;-72
2023/03/15 08:45:24;;;;;;;0.50;0.50;;;5.70;99.90;;;;;;4974699;28;20031;-74
2023/03/15 08:47:57;;;;;;;0.10;0.10;;;5.80;99.90;;;;;;4975432;28;21465;-74
2023/03/15 08:50:24;;;;;;;0.00;0.00;;;5.80;99.90;;;;;;4975750;28;20714;-72
2023/03/15 08:52:50;;;;;;;0.10;0.10;;;6.10;99.90;;;;;;4975372;28;20030;-71
2023/03/15 08:55:16;;;;;;;0.00;0.00;;;6.20;99.90;;;;;;4974730;28;20025;-72
2023/03/15 08:57:42;;;;;;;0.10;0.10;;;6.30;99.90;;;;;;4974783;28;20026;-71
2023/03/15 09:00:09;;;;;;;0.40;0.40;;;6.50;99.90;;;;;;4975012;28;20019;-71
2023/03/15 09:02:38;;;;;;;0.00;0.00;;;6.40;99.90;;;;;;4975436;28;20464;-71
2023/03/15 09:05:05;;;;;;;0.10;0.10;;;6.90;99.90;;;;;;4975300;28;20029;-72
2023/03/15 09:07:32;;;;;;;0.32;0.32;;;6.90;99.90;;;;;;4975082;28;20497;-71
2023/03/15 09:09:58;;;;;;;0.47;0.47;;;7.00;99.90;;;;;;4975250;28;20497;-72
2023/03/15 09:12:23;;;;;;;0.00;0.00;;;6.30;99.90;;;;;;4973447;28;20031;-70
2023/03/15 09:14:49;;;;;;;0.17;0.17;;;6.00;99.90;;;;;;4972411;28;20023;-71
2023/03/15 09:17:15;;;;;;;0.17;0.17;;;6.00;99.90;;;;;;4969391;28;20392;-71
2023/03/15 09:19:41;;;;;;;0.10;0.10;;;6.40;99.90;;;;;;4973669;28;20030;-71
2023/03/15 09:22:06;;;;;;;2.40;1.65;;;6.80;99.90;;;;;;4974687;28;20114;-71
2023/03/15 09:24:32;;;;;;;0.10;0.10;;;7.00;99.90;;;;;;4973927;28;20472;-72
2023/03/15 09:26:58;;;;;;;0.08;0.08;;;6.70;99.90;;;;;;4974468;28;20435;-70
2023/03/15 09:29:23;;;;;;;0.38;0.38;;;6.70;99.90;;;;;;4973839;28;20023;-70
2023/03/15 09:31:49;;;;;;;0.47;0.47;;;6.70;99.90;;;;;;4974556;28;20027;-74
2023/03/15 09:34:15;;;;;;;0.10;0.10;;;7.10;99.90;;;;;;4973073;28;20062;-74
2023/03/15 09:36:41;;;;;;;0.55;0.40;;;7.50;99.90;;;;;;4985860;28;20038;-74
2023/03/15 09:39:07;;;;;;;0.57;0.45;;;7.80;99.90;;;;;;4989213;28;20067;-74
2023/03/15 09:41:45;;;;;;;0.03;0.03;;;8.20;99.90;;;;;;4987206;28;20414;-74
2023/03/15 09:44:40;;;;;;;0.43;0.43;;;8.60;99.90;;;;;;4987903;28;20452;-75
2023/03/15 09:47:30;;;;;;;0.35;0.35;;;8.30;99.90;;;;;;4977627;28;20411;-75
2023/03/15 09:50:05;;;;;;;0.00;0.00;;;8.20;99.90;;;;;;4972936;28;20027;-74
2023/03/15 09:52:42;;;;;;;0.20;0.20;;;8.20;99.90;;;;;;4972933;28;20153;-70
2023/03/15 09:55:26;;;;;;;0.90;0.75;;;8.00;99.90;;;;;;4986155;28;20030;-74
2023/03/15 09:57:58;;;;;;;1.35;1.08;;;8.20;99.90;;;;;;4977816;28;20034;-75
2023/03/15 10:00:38;;;;;;;0.10;0.10;;;8.10;99.90;;;;;;4979920;28;20382;-74
2023/03/15 10:03:08;;;;;;;0.35;0.35;;;8.40;99.90;;;;;;4974469;28;20538;-72
2023/03/15 10:05:43;;;;;;;0.10;0.10;;;8.60;99.90;;;;;;4989708;28;20026;-74
2023/03/15 10:08:17;;;;;;;0.77;0.73;;;8.40;99.90;;;;;;4963006;28;20117;-74
2023/03/15 10:11:03;;;;;;;0.32;0.32;;;8.70;99.90;;;;;;4976776;28;20038;-71
2023/03/15 10:13:35;;;;;;;0.30;0.30;;;8.40;99.90;;;;;;4986297;28;20501;-74
2023/03/15 10:16:11;;;;;;;;;;;8.90;99.90;;;;;;4971806;28;20062;-72
2023/03/15 10:18:54;;;;;;;0.28;0.28;;;9.10;99.90;;;;;;4993371;28;20285;-74
2023/03/15 10:21:25;;;;;;;0.10;0.10;;;9.20;99.90;;;;;;4980551;28;20022;-74
2023/03/15 10:23:54;;;;;;;0.10;0.10;;;9.20;99.90;;;;;;4981370;28;20039;-74
2023/03/15 10:26:28;;;;;;;0.10;0.10;;;9.60;99.90;;;;;;4985351;28;20038;-73
2023/03/15 10:28:54;;;;;;;0.10;0.10;;;9.70;99.90;;;;;;4991277;28;20030;-73
2023/03/15 10:31:33;;;;;;;0.10;0.10;;;9.60;99.90;;;;;;4979938;28;20111;-73
2023/03/15 10:33:59;;;;;;;0.20;0.20;;;9.40;99.90;;;;;;4969276;28;20057;-72
2023/03/15 10:36:25;;;;;;;0.10;0.10;;;9.60;99.90;;;;;;4982742;28;20062;-71
2023/03/15 10:38:51;;;;;;;0.17;0.10;;;9.40;99.90;;;;;;4988319;28;20026;-74
2023/03/15 10:41:47;;;;;;;0.20;0.20;;;9.90;99.90;;;;;;4991520;28;20093;-73
2023/03/15 10:44:15;;;;;;;0.17;0.17;;;10.50;99.90;;;;;;4986293;28;20057;-73
2023/03/15 10:46:41;;;;;;;0.10;0.10;;;10.50;99.90;;;;;;4975847;28;20062;-72
2023/03/15 10:49:13;;;;;;;0.00;0.00;;;10.90;99.90;;;;;;4982246;28;20145;-74
2023/03/15 10:51:44;;;;;;;0.13;0.13;;;10.10;98.20;;;;;;4985240;28;20023;-71
2023/03/15 10:54:16;;;;;;;0.20;0.20;;;10.10;99.80;;;;;;4986087;28;20039;-74
2023/03/15 10:57:01;;;;;;;0.10;0.10;;;9.90;99.90;;;;;;4965214;28;20509;-73
2023/03/15 10:59:30;;;;;;;0.10;0.10;;;10.40;99.70;;;;;;4981650;28;20042;-73
2023/03/15 11:02:21;;;;;;;0.10;0.10;;;9.90;99.10;;;;;;4971834;28;20039;-71
2023/03/15 11:05:00;;;;;;;0.10;0.10;;;9.80;99.40;;;;;;4969688;28;20047;-73
2023/03/15 11:07:26;;;;;;;0.10;0.10;;;10.00;99.90;;;;;;4991735;28;20034;-72
2023/03/15 11:09:58;;;;;;;0.20;0.20;;;10.70;99.20;;;;;;4975758;28;20023;-72
2023/03/15 11:12:28;;;;;;;1.75;0.50;;;11.10;98.90;;;;;;4971904;28;20372;-74
2023/03/15 11:15:01;;;;;;;0.45;0.45;;;11.60;97.20;;;;;;4971208;28;20026;-74
2023/03/15 11:17:34;;;;;;;0.25;0.25;;;11.80;96.60;;;;;;4990461;28;20137;-73
2023/03/15 11:20:15;;;;;;;0.63;0.63;;;11.70;97.40;;;;;;4962260;28;20060;-73
2023/03/15 11:22:41;;;;;;;0.10;0.10;;;11.80;96.50;;;;;;4978210;28;20422;-74
2023/03/15 11:25:14;;;;;;;0.38;0.32;;;11.50;96.20;;;;;;4985778;28;20038;-74
2023/03/15 11:27:49;;;;;;;1.70;1.33;;;10.70;97.10;;;;;;4985639;28;20085;-73
2023/03/15 11:30:17;;;;;;;0.82;0.65;;;9.90;97.30;;;;;;4960900;28;20027;-72
2023/03/15 11:32:45;;;;;;;0.20;0.20;;;9.70;97.30;;;;;;4975703;28;20022;-74
2023/03/15 11:35:21;;;;;;;0.17;0.17;;;9.70;97.60;;;;;;4983303;28;20555;-74
2023/03/15 11:37:56;;;;;;;0.45;0.35;;;9.60;96.40;;;;;;4982805;28;20052;-74
2023/03/15 11:40:36;;;;;;;0.20;0.20;;;10.30;95.80;;;;;;4961067;28;20031;-73
2023/03/15 11:43:28;;;;;;;0.10;0.10;;;10.50;95.30;;;;;;4989873;28;20130;-74
2023/03/15 11:45:57;;;;;;;0.10;0.10;;;10.40;95.20;;;;;;4965899;28;20467;-75
2023/03/15 11:48:41;;;;;;;0.82;0.32;;;9.80;96.20;;;;;;4979018;28;20042;-74
2023/03/15 11:51:11;;;;;;;0.10;0.10;;;10.60;97.40;;;;;;4989379;28;20108;-74
2023/03/15 11:53:43;;;;;;;1.17;1.08;;;11.20;96.20;;;;;;4990646;28;20252;-74
2023/03/15 11:56:46;;;;;;;1.55;1.52;;;10.90;96.40;;;;;;4963928;28;20510;-74
2023/03/15 11:59:14;;;;;;;0.05;0.05;;;12.50;96.00;;;;;;4975774;28;20061;-74
2023/03/15 12:01:59;;;;;;;0.00;0.00;;;13.00;95.10;;;;;;4985181;28;20038;-75
2023/03/15 12:04:31;;;;;;;0.52;0.52;;;13.40;94.60;;;;;;4990544;28;20042;-74
2023/03/15 12:07:23;;;;;;;;;;;13.70;95.90;;;;;;4974066;28;20077;-73
2023/03/15 12:09:56;;;;;;;0.38;0.38;;;13.70;94.30;;;;;;4974297;28;19910;-70
2023/03/15 12:12:25;;;;;;;0.00;0.00;;;13.00;94.90;;;;;;4976050;28;20394;-70
2023/03/15 12:15:17;;;;;;;0.10;0.10;;;12.90;95.10;;;;;;4971471;28;20059;-69
2023/03/15 12:17:53;;;;;;;0.20;0.20;;;13.70;93.50;;;;;;4975773;28;20035;-69
2023/03/15 12:20:45;;;;;;;0.38;0.32;;;12.10;93.70;;;;;;4982999;28;20117;-71
2023/03/15 12:23:16;;;;;;;0.27;0.27;;;11.70;94.50;;;;;;4977013;28;20403;-69
2023/03/15 12:25:51;;;;;;;0.10;0.10;;;11.10;95.70;;;;;;4976434;28;20027;-69
2023/03/15 12:28:22;;;;;;;0.10;0.10;;;12.10;95.70;;;;;;4980779;28;20089;-69
2023/03/15 12:30:55;;;;;;;0.10;0.10;;;13.70;93.80;;;;;;4978787;28;20035;-71
2023/03/15 12:33:24;;;;;;;0.10;0.10;;;14.40;93.20;;;;;;4980567;28;20122;-70
2023/03/15 12:35:57;;;;;;;0.30;0.30;;;14.00;93.50;;;;;;4978743;28;20570;-69
2023/03/15 12:38:23;;;;;;;0.10;0.10;;;13.20;93.10;;;;;;4976246;28;20101;-70
2023/03/15 12:40:56;;;;;;;0.30;0.30;;;13.80;92.70;;;;;;4980601;28;20022;-69
2023/03/15 12:43:45;;;;;;;0.30;0.30;;;11.90;92.40;;;;;;4995777;28;20125;-69
2023/03/15 12:46:46;;;;;;;0.00;0.00;;;11.80;94.00;;;;;;4972502;28;20030;-70
2023/03/15 12:49:24;;;;;;;0.32;0.32;;;12.20;93.50;;;;;;4994169;28;20038;-70
2023/03/15 12:52:00;;;;;;;1.33;0.65;;;12.20;94.10;;;;;;4995790;28;20034;-69
2023/03/15 12:54:52;;;;;;;0.30;0.30;;;11.20;95.50;;;;;;4995440;28;20039;-68
2023/03/15 12:57:21;;;;;;;0.00;0.00;;;11.80;96.00;;;;;;4994046;28;20030;-69
2023/03/15 13:00:11;;;;;;;0.03;0.03;;;12.70;95.10;;;;;;4995753;28;20022;-70
2023/03/15 13:02:57;;;;;;;0.10;0.10;;;14.20;92.50;;;;;;4995268;28;20157;-69
2023/03/15 13:05:42;;;;;;;0.98;0.38;;;14.60;92.60;;;;;;4995176;28;20102;-70
2023/03/15 13:08:22;;;;;;;1.45;1.08;;;15.10;92.10;;;;;;4995379;28;20031;-69
2023/03/15 13:11:11;;;;;;;1.85;0.70;;;15.30;90.70;;;;;;4995090;28;20022;-69
2023/03/15 13:14:34;;;;;;;0.20;0.20;;;14.80;90.30;;;;;;4995317;28;20034;-69
2023/03/15 13:17:16;;;;;;;3.22;1.75;;;13.80;91.40;;;;;;4925301;29;20050;-69
2023/03/15 13:19:48;;;;;;;0.10;0.10;;;13.90;90.80;;;;;;4934043;29;20035;-69
2023/03/15 13:22:33;;;;;;;0.38;0.38;;;13.10;92.30;;;;;;4958491;28;20106;-69